Time;durP1;ratioP1;P1;durP2;ratioP2;P2;SDS_P1;SDS_P2;PMS_P1;PMS_P2;Temp;Humidity;BMP_temperature;BMP_pressure;BME280_temperature;BME280_humidity;BME280_pressure;Samples;Min_cycle;Max_cycle;Signal;HPM_P1;HPM_P2
2022/06/13 00:00:19;;;;;;;;;;;;;;;18.28;79.71;96738.22;5094273;28;20077;-71
2022/06/13 00:02:45;;;;;;;;;;;;;;;18.29;78.37;96731.88;5086088;28;19956;-72
2022/06/13 00:05:11;;;;;;;;;;;;;;;18.30;79.16;96732.66;5094124;28;19971;-72
2022/06/13 00:07:37;;;;;;;;;;;;;;;18.31;79.45;96744.88;5093410;28;19966;-72
2022/06/13 00:10:07;;;;;;;;;;;;;;;18.26;78.67;96738.47;5092817;28;19970;-72
2022/06/13 00:12:33;;;;;;;;;;;;;;;18.02;80.71;96726.72;5095438;28;19967;-72
2022/06/13 00:14:59;;;;;;;;;;;;;;;17.86;82.07;96728.47;5093070;28;20347;-72
2022/06/13 00:17:25;;;;;;;;;;;;;;;17.76;81.09;96723.09;5073463;28;19986;-73
2022/06/13 00:19:51;;;;;;;;;;;;;;;17.76;81.64;96715.13;5075974;28;20329;-72
2022/06/13 00:22:17;;;;;;;;;;;;;;;17.79;81.91;96722.59;5094637;28;19955;-73
2022/06/13 00:24:44;;;;;;;;;;;;;;;17.77;81.00;96736.09;5093796;28;19968;-72
2022/06/13 00:27:10;;;;;;;;;;;;;;;17.80;80.57;96737.44;5093487;28;19974;-72
2022/06/13 00:29:39;;;;;;;;;;;;;;;17.84;81.93;96723.41;5093756;28;19967;-73
2022/06/13 00:32:05;;;;;;;;;;;;;;;17.90;80.92;96734.09;5093541;28;20000;-72
2022/06/13 00:34:31;;;;;;;;;;;;;;;17.94;81.50;96740.47;5094667;28;19967;-72
2022/06/13 00:36:57;;;;;;;;;;;;;;;17.97;81.70;96735.44;5093357;28;19985;-71
2022/06/13 00:39:23;;;;;;;;;;;;;;;18.00;81.20;96742.09;5093748;28;19971;-73
2022/06/13 00:41:49;;;;;;;;;;;;;;;18.00;81.18;96729.63;5094438;28;19965;-72
2022/06/13 00:44:24;;;;;;;;;;;;;;;18.00;81.45;96726.97;5092819;28;19951;-73
2022/06/13 00:46:50;;;;;;;;;;;;;;;18.01;81.16;96717.94;5093430;28;19963;-73
2022/06/13 00:49:25;;;;;;;;;;;;;;;18.00;80.94;96711.03;5093528;28;19966;-75
2022/06/13 00:52:05;;;;;;;;;;;;;;;17.92;80.70;96711.53;5087519;28;19977;-73
2022/06/13 00:54:32;;;;;;;;;;;;;;;17.88;82.06;96701.69;5075431;28;19959;-73
2022/06/13 00:56:58;;;;;;;;;;;;;;;17.88;82.40;96704.34;5093434;28;20000;-73
2022/06/13 00:59:26;;;;;;;;;;;;;;;17.89;81.84;96706.75;5093296;28;19971;-74
2022/06/13 01:01:52;;;;;;;;;;;;;;;17.90;82.04;96715.50;5088372;28;20006;-74
2022/06/13 01:04:18;;;;;;;;;;;;;;;17.90;82.00;96705.69;5094424;28;20340;-73
2022/06/13 01:06:46;;;;;;;;;;;;;;;17.91;82.50;96709.13;5091112;28;19980;-74
2022/06/13 01:09:14;;;;;;;;;;;;;;;17.91;82.15;96696.69;5093521;28;19960;-73
2022/06/13 01:11:44;;;;;;;;;;;;;;;17.88;81.82;96691.09;5091363;28;19973;-74
2022/06/13 01:14:20;;;;;;;;;;;;;;;17.87;81.88;96698.25;5040872;28;20409;-73
2022/06/13 01:16:59;;;;;;;;;;;;;;;17.87;81.94;96708.03;5093891;28;19977;-73
2022/06/13 01:19:27;;;;;;;;;;;;;;;17.88;82.89;96704.34;5093871;28;19953;-72
2022/06/13 01:21:56;;;;;;;;;;;;;;;17.86;82.97;96696.66;5075066;28;19986;-72
2022/06/13 01:24:25;;;;;;;;;;;;;;;17.85;83.91;96693.19;5093802;28;19959;-73
2022/06/13 01:26:58;;;;;;;;;;;;;;;17.85;83.18;96690.53;5092100;28;19965;-73
2022/06/13 01:29:41;;;;;;;;;;;;;;;17.83;85.90;96691.88;5091836;28;19989;-72
2022/06/13 01:32:20;;;;;;;;;;;;;;;17.79;82.60;96680.94;5092689;28;19986;-72
2022/06/13 01:34:46;;;;;;;;;;;;;;;17.79;83.42;96682.78;5092667;28;19956;-73
2022/06/13 01:37:12;;;;;;;;;;;;;;;17.77;83.31;96688.34;5092819;28;20424;-73
2022/06/13 01:39:50;;;;;;;;;;;;;;;17.77;83.21;96680.41;5093507;28;20007;-72
2022/06/13 01:42:34;;;;;;;;;;;;;;;17.75;83.06;96677.19;5092479;28;19950;-73
2022/06/13 01:45:22;;;;;;;;;;;;;;;17.71;83.21;96678.78;5058516;28;19963;-72
2022/06/13 01:48:06;;;;;;;;;;;;;;;17.65;83.61;96662.03;5092283;28;19967;-73
2022/06/13 01:50:39;;;;;;;;;;;;;;;17.62;84.45;96670.50;5092651;28;19961;-73
2022/06/13 01:53:05;;;;;;;;;;;;;;;17.58;83.30;96680.03;5093978;28;19962;-73
2022/06/13 01:55:53;;;;;;;;;;;;;;;17.57;83.42;96683.72;5091758;28;19970;-73
2022/06/13 01:58:37;;;;;;;;;;;;;;;17.57;83.58;96681.06;5092438;28;19976;-73
2022/06/13 02:01:26;;;;;;;;;;;;;;;17.56;83.01;96679.47;5090828;28;19966;-73
2022/06/13 02:04:09;;;;;;;;;;;;;;;17.56;82.72;96686.66;5093617;28;19961;-73
2022/06/13 02:06:40;;;;;;;;;;;;;;;17.54;83.28;96696.72;5097211;28;19964;-73
2022/06/13 02:09:10;;;;;;;;;;;;;;;17.52;83.12;96696.97;5097362;28;19965;-73
2022/06/13 02:11:43;;;;;;;;;;;;;;;17.50;83.58;96698.28;5095669;28;20303;-73
2022/06/13 02:14:13;;;;;;;;;;;;;;;17.50;83.21;96700.94;5097909;28;19958;-73
2022/06/13 02:16:48;;;;;;;;;;;;;;;17.49;83.88;96705.44;5096234;28;19964;-72
2022/06/13 02:19:24;;;;;;;;;;;;;;;17.47;83.45;96699.59;5096298;28;19953;-73
2022/06/13 02:21:53;;;;;;;;;;;;;;;17.46;84.11;96711.25;5086757;28;19956;-74
2022/06/13 02:24:22;;;;;;;;;;;;;;;17.47;84.27;96706.72;5095700;28;19968;-74
2022/06/13 02:26:51;;;;;;;;;;;;;;;17.45;84.30;96705.13;5097116;28;20011;-73
2022/06/13 02:29:19;;;;;;;;;;;;;;;17.45;85.45;96699.84;5095655;28;19967;-73
2022/06/13 02:31:48;;;;;;;;;;;;;;;17.45;84.85;96697.19;5096048;28;20028;-73
2022/06/13 02:34:14;;;;;;;;;;;;;;;17.47;85.01;96699.59;5096878;28;20017;-73
2022/06/13 02:36:43;;;;;;;;;;;;;;;17.47;84.42;96699.59;5096139;28;20411;-73
2022/06/13 02:39:12;;;;;;;;;;;;;;;17.46;85.71;96695.31;5096892;28;19962;-73
2022/06/13 02:41:46;;;;;;;;;;;;;;;17.47;85.03;96702.25;5095360;28;19955;-73
2022/06/13 02:44:14;;;;;;;;;;;;;;;17.48;85.15;96708.34;5095976;28;20425;-73
2022/06/13 02:46:53;;;;;;;;;;;;;;;17.47;85.10;96704.91;5096019;28;19958;-73
2022/06/13 02:49:24;;;;;;;;;;;;;;;17.48;86.63;96709.13;5078013;28;19969;-73
2022/06/13 02:52:11;;;;;;;;;;;;;;;17.46;85.91;96703.28;5042816;28;19951;-73
2022/06/13 02:54:58;;;;;;;;;;;;;;;17.44;85.54;96708.84;5096461;28;19965;-73
2022/06/13 02:57:36;;;;;;;;;;;;;;;17.44;85.70;96711.47;5093761;28;19976;-73
2022/06/13 03:00:09;;;;;;;;;;;;;;;17.44;86.05;96705.38;5095701;28;19958;-73
2022/06/13 03:02:53;;;;;;;;;;;;;;;17.43;85.84;96704.59;5095823;28;19960;-73
2022/06/13 03:05:44;;;;;;;;;;;;;;;17.42;86.04;96696.91;5088755;28;19957;-73
2022/06/13 03:08:10;;;;;;;;;;;;;;;17.42;85.41;96704.84;5096173;28;19961;-73
2022/06/13 03:10:40;;;;;;;;;;;;;;;17.41;85.99;96701.41;5094862;28;20511;-73
2022/06/13 03:13:09;;;;;;;;;;;;;;;17.41;86.10;96700.59;5096384;28;19956;-73
2022/06/13 03:15:44;;;;;;;;;;;;;;;17.39;86.15;96698.22;5094091;28;19962;-73
2022/06/13 03:18:30;;;;;;;;;;;;;;;17.39;86.19;96700.06;5087703;28;20342;-73
2022/06/13 03:21:06;;;;;;;;;;;;;;;17.37;85.64;96705.63;5093332;28;19953;-73
2022/06/13 03:23:35;;;;;;;;;;;;;;;17.35;85.14;96707.72;5094830;28;19953;-73
2022/06/13 03:26:21;;;;;;;;;;;;;;;17.33;84.91;96703.72;5096070;28;19957;-73
2022/06/13 03:28:49;;;;;;;;;;;;;;;17.29;84.05;96702.66;5094432;28;19954;-73
2022/06/13 03:31:39;;;;;;;;;;;;;;;17.27;83.94;96710.84;5094205;28;19976;-73
2022/06/13 03:34:13;;;;;;;;;;;;;;;17.25;82.89;96715.59;5076537;28;19970;-74
2022/06/13 03:36:42;;;;;;;;;;;;;;;17.19;85.21;96716.59;5094655;28;19957;-72
2022/06/13 03:39:13;;;;;;;;;;;;;;;17.16;83.92;96712.63;5095818;28;20321;-74
2022/06/13 03:41:47;;;;;;;;;;;;;;;17.13;83.36;96718.41;5094887;28;20416;-73
2022/06/13 03:44:16;;;;;;;;;;;;;;;17.13;84.17;96713.09;5095943;28;20335;-73
2022/06/13 03:47:05;;;;;;;;;;;;;;;17.12;84.32;96713.38;5094442;28;20405;-74
2022/06/13 03:49:37;;;;;;;;;;;;;;;17.11;83.56;96717.88;5090267;28;19960;-73
2022/06/13 03:52:18;;;;;;;;;;;;;;;17.10;83.88;96721.56;5092383;28;19981;-73
2022/06/13 03:54:48;;;;;;;;;;;;;;;17.07;83.79;96735.31;5094623;28;19956;-73
2022/06/13 03:57:13;;;;;;;;;;;;;;;17.05;83.45;96729.50;5094142;28;19995;-74
2022/06/13 03:59:48;;;;;;;;;;;;;;;17.04;82.71;96730.53;5094403;28;21556;-74
2022/06/13 04:02:16;;;;;;;;;;;;;;;17.02;83.22;96722.03;5092709;28;19970;-73
2022/06/13 04:04:49;;;;;;;;;;;;;;;17.00;82.45;96727.56;5093354;28;19957;-74
2022/06/13 04:07:17;;;;;;;;;;;;;;;16.98;82.67;96732.31;5093140;28;19976;-74
2022/06/13 04:09:51;;;;;;;;;;;;;;;16.98;83.34;96723.59;5093771;28;19969;-73
2022/06/13 04:12:32;;;;;;;;;;;;;;;16.97;83.26;96729.94;5092326;28;19964;-77
2022/06/13 04:15:13;;;;;;;;;;;;;;;16.99;83.48;96727.84;5093987;28;19960;-73
2022/06/13 04:17:54;;;;;;;;;;;;;;;16.97;83.44;96720.16;5094027;28;19976;-75
2022/06/13 04:20:30;;;;;;;;;;;;;;;16.97;83.60;96725.44;5078421;28;19959;-73
2022/06/13 04:23:08;;;;;;;;;;;;;;;16.95;83.03;96714.31;5094752;28;19962;-74
2022/06/13 04:25:43;;;;;;;;;;;;;;;16.92;82.77;96724.59;5093358;28;19974;-76
2022/06/13 04:28:12;;;;;;;;;;;;;;;16.89;82.37;96725.91;5085961;28;19958;-73
2022/06/13 04:30:41;;;;;;;;;;;;;;;16.93;82.24;96723.56;5090905;28;19959;-73
2022/06/13 04:33:14;;;;;;;;;;;;;;;16.93;82.12;96721.69;5086974;28;19974;-73
2022/06/13 04:35:40;;;;;;;;;;;;;;;16.93;81.83;96720.91;5093369;28;20423;-74
2022/06/13 04:38:09;;;;;;;;;;;;;;;16.92;81.96;96729.88;5094193;28;20471;-73
2022/06/13 04:40:38;;;;;;;;;;;;;;;16.95;81.85;96732.84;5092528;28;20433;-74
2022/06/13 04:43:06;;;;;;;;;;;;;;;17.03;81.78;96737.69;5093734;28;19959;-74
2022/06/13 04:45:38;;;;;;;;;;;;;;;17.11;81.87;96736.41;5073896;28;19965;-74
2022/06/13 04:48:04;;;;;;;;;;;;;;;17.20;81.70;96745.50;5076156;28;19962;-74
2022/06/13 04:50:34;;;;;;;;;;;;;;;17.30;81.05;96744.00;5076219;28;20336;-74
2022/06/13 04:53:01;;;;;;;;;;;;;;;17.44;80.23;96750.47;5094227;28;19966;-73
2022/06/13 04:55:46;;;;;;;;;;;;;;;17.57;80.05;96750.03;5094428;28;20431;-74
2022/06/13 04:58:16;;;;;;;;;;;;;;;17.72;79.42;96751.97;5094094;28;20431;-74
2022/06/13 05:00:44;;;;;;;;;;;;;;;17.89;78.82;96754.50;5094161;28;19957;-73
2022/06/13 05:03:20;;;;;;;;;;;;;;;18.05;78.92;96758.03;5094001;28;20451;-74
2022/06/13 05:05:50;;;;;;;;;;;;;;;18.11;75.81;96751.69;5094159;28;19963;-73
2022/06/13 05:08:22;;;;;;;;;;;;;;;18.24;77.02;96759.19;5094174;28;19956;-73
2022/06/13 05:10:50;;;;;;;;;;;;;;;18.36;74.38;96764.28;5076041;28;20330;-74
2022/06/13 05:13:35;;;;;;;;;;;;;;;18.39;74.65;96770.91;5094430;28;19958;-74
2022/06/13 05:16:27;;;;;;;;;;;;;;;18.42;73.74;96773.88;5093979;28;19961;-74
2022/06/13 05:19:19;;;;;;;;;;;;;;;18.29;71.96;96761.06;5077653;28;19981;-74
2022/06/13 05:22:03;;;;;;;;;;;;;;;17.96;72.66;96778.16;5094037;28;19969;-74
2022/06/13 05:24:34;;;;;;;;;;;;;;;17.70;72.41;96777.16;5092900;28;19962;-74
2022/06/13 05:27:05;;;;;;;;;;;;;;;17.73;73.13;96785.41;5094069;28;19950;-73
2022/06/13 05:30:09;;;;;;;;;;;;;;;17.89;73.12;96788.19;5053705;28;19972;-73
2022/06/13 05:32:35;;;;;;;;;;;;;;;18.15;73.49;96789.16;5085359;28;19983;-73
2022/06/13 05:35:03;;;;;;;;;;;;;;;18.43;72.96;96790.59;5093001;28;20332;-74
2022/06/13 05:37:29;;;;;;;;;;;;;;;18.51;72.08;96792.75;5094277;28;19994;-73
2022/06/13 05:39:56;;;;;;;;;;;;;;;18.39;70.33;96790.31;5092834;28;20417;-74
2022/06/13 05:42:22;;;;;;;;;;;;;;;18.19;71.99;96803.50;5092840;28;20358;-73
2022/06/13 05:44:48;;;;;;;;;;;;;;;18.15;72.46;96811.16;5093771;28;19958;-74
2022/06/13 05:47:18;;;;;;;;;;;;;;;18.38;71.33;96802.00;5093601;28;20046;-74
2022/06/13 05:49:44;;;;;;;;;;;;;;;18.56;69.19;96789.31;5093511;28;19974;-74
2022/06/13 05:52:11;;;;;;;;;;;;;;;18.70;66.94;96774.47;5093640;28;20465;-74
2022/06/13 05:54:37;;;;;;;;;;;;;;;18.83;66.49;96770.56;5093180;28;19979;-74
2022/06/13 05:57:03;;;;;;;;;;;;;;;18.86;67.48;96788.66;5093561;28;19971;-74
2022/06/13 05:59:29;;;;;;;;;;;;;;;19.03;68.18;96796.38;5093290;28;19979;-74
2022/06/13 06:01:55;;;;;;;;;;;;;;;19.24;65.92;96766.09;5093419;28;19961;-74
2022/06/13 06:04:21;;;;;;;;;;;;;;;19.26;63.79;96763.97;5093575;28;20016;-74
2022/06/13 06:07:02;;;;;;;;;;;;;;;19.22;64.58;96765.56;5093574;28;19964;-74
2022/06/13 06:09:28;;;;;;;;;;;;;;;19.35;64.88;96774.88;5093321;28;19951;-74
2022/06/13 06:11:54;;;;;;;;;;;;;;;19.60;64.76;96779.38;5093708;28;20043;-74
2022/06/13 06:14:19;;;;;;;;;;;;;;;19.68;63.09;96770.88;5092850;28;20320;-74
2022/06/13 06:16:47;;;;;;;;;;;;;;;19.77;63.00;96776.47;5076896;28;19953;-74
2022/06/13 06:19:36;;;;;;;;;;;;;;;19.52;62.82;96774.59;5059487;28;19957;-73
2022/06/13 06:22:02;;;;;;;;;;;;;;;19.40;63.48;96782.88;5093460;28;19962;-74
2022/06/13 06:24:28;;;;;;;;;;;;;;;19.59;62.62;96784.97;5093594;28;19966;-73
2022/06/13 06:26:55;;;;;;;;;;;;;;;19.88;62.84;96779.91;5093209;28;19973;-74
2022/06/13 06:29:21;;;;;;;;;;;;;;;19.89;59.30;96746.13;5093097;28;19954;-73
2022/06/13 06:31:47;;;;;;;;;;;;;;;19.73;58.12;96724.06;5074943;28;20072;-73
2022/06/13 06:34:13;;;;;;;;;;;;;;;19.62;60.69;96766.63;5093454;28;20489;-73
2022/06/13 06:36:39;;;;;;;;;;;;;;;19.42;60.21;96771.94;5093193;28;19967;-73
2022/06/13 06:39:04;;;;;;;;;;;;;;;19.47;60.98;96788.72;5093286;28;20420;-73
2022/06/13 06:41:30;;;;;;;;;;;;;;;19.78;61.78;96801.22;5093136;28;19966;-74
2022/06/13 06:43:56;;;;;;;;;;;;;;;20.04;59.76;96765.50;5093034;28;19958;-73
2022/06/13 06:46:23;;;;;;;;;;;;;;;20.30;59.60;96765.41;5075115;28;19962;-73
2022/06/13 06:48:51;;;;;;;;;;;;;;;20.51;56.89;96746.69;5080767;28;19965;-74
2022/06/13 06:51:17;;;;;;;;;;;;;;;20.50;55.29;96737.91;5094797;28;19955;-74
2022/06/13 07:02:30;;;;;;;;;;;;;;;20.30;54.83;96736.13;5069590;28;19976;-73
2022/06/13 07:05:00;;;;;;;;;;;;;;;20.32;58.10;96768.59;5096885;28;19969;-73
2022/06/13 07:07:26;;;;;;;;;;;;;;;20.31;56.85;96767.03;5096440;28;20414;-73
2022/06/13 07:09:52;;;;;;;;;;;;;;;20.25;56.48;96773.44;5095188;28;20356;-73
2022/06/13 07:12:18;;;;;;;;;;;;;;;20.05;57.50;96782.25;5096295;28;19955;-73
2022/06/13 07:14:45;;;;;;;;;;;;;;;19.83;58.63;96799.34;5095745;28;19962;-73
2022/06/13 07:17:13;;;;;;;;;;;;;;;19.73;57.34;96793.25;5094633;28;19950;-72
2022/06/13 07:19:40;;;;;;;;;;;;;;;19.80;56.31;96775.94;5096159;28;19984;-72
2022/06/13 07:22:07;;;;;;;;;;;;;;;19.88;57.95;96803.88;5095001;28;19972;-73
2022/06/13 07:24:33;;;;;;;;;;;;;;;20.08;57.39;96790.53;5096059;28;19967;-73
2022/06/13 07:26:59;;;;;;;;;;;;;;;20.36;57.26;96784.84;5096090;28;20444;-73
2022/06/13 07:29:25;;;;;;;;;;;;;;;20.62;56.46;96780.22;5095829;28;19966;-72
2022/06/13 07:31:58;;;;;;;;;;;;;;;20.82;56.33;96785.47;5077565;28;20440;-73
2022/06/13 07:34:26;;;;;;;;;;;;;;;20.97;54.02;96752.56;5080445;28;19965;-72
2022/06/13 07:36:53;;;;;;;;;;;;;;;21.13;55.66;96787.16;5095227;28;19960;-72
2022/06/13 07:39:20;;;;;;;;;;;;;;;21.25;52.93;96755.56;5093470;28;19975;-72
2022/06/13 07:41:46;;;;;;;;;;;;;;;21.38;52.96;96762.16;5095643;28;19965;-73
2022/06/13 07:44:21;;;;;;;;;;;;;;;21.45;53.61;96765.31;5095767;28;19976;-73
2022/06/13 07:46:48;;;;;;;;;;;;;;;21.49;52.65;96753.81;5095542;28;19969;-73
2022/06/13 07:49:14;;;;;;;;;;;;;;;21.65;54.03;96767.03;5095525;28;19981;-73
2022/06/13 07:51:40;;;;;;;;;;;;;;;21.67;52.49;96741.66;5095571;28;19954;-73
2022/06/13 07:54:06;;;;;;;;;;;;;;;21.58;51.31;96748.66;5095545;28;19971;-74
2022/06/13 07:56:34;;;;;;;;;;;;;;;21.49;51.54;96753.00;5095200;28;20039;-73
2022/06/13 07:59:27;;;;;;;;;;;;;;;21.24;50.36;96741.44;5089998;28;21299;-73
2022/06/13 08:01:53;;;;;;;;;;;;;;;21.19;50.81;96738.84;5094539;28;20319;-73
2022/06/13 08:04:20;;;;;;;;;;;;;;;21.33;52.78;96778.97;5095345;28;19958;-73
2022/06/13 08:06:46;;;;;;;;;;;;;;;21.49;52.96;96772.47;5095241;28;20018;-72
2022/06/13 08:09:12;;;;;;;;;;;;;;;21.51;51.25;96761.53;5095308;28;19968;-73
2022/06/13 08:11:46;;;;;;;;;;;;;;;21.56;51.30;96763.34;5094283;28;19963;-73
2022/06/13 08:14:11;;;;;;;;;;;;;;;21.53;51.61;96780.72;5077135;28;19998;-72
2022/06/13 08:16:38;;;;;;;;;;;;;;;21.64;51.26;96771.56;5095081;28;20003;-72
2022/06/13 08:19:04;;;;;;;;;;;;;;;21.75;50.39;96760.78;5094948;28;20458;-72
2022/06/13 08:21:32;;;;;;;;;;;;;;;21.89;51.60;96777.72;5094733;28;19952;-72
2022/06/13 08:23:58;;;;;;;;;;;;;;;22.01;51.52;96778.16;5094096;28;19963;-73
2022/06/13 08:26:24;;;;;;;;;;;;;;;21.99;46.99;96737.56;5095079;28;20043;-72
2022/06/13 08:28:49;;;;;;;;;;;;;;;21.92;48.09;96766.47;5094694;28;20363;-73
2022/06/13 08:31:22;;;;;;;;;;;;;;;21.96;50.23;96796.09;5095090;28;19986;-72
2022/06/13 08:33:48;;;;;;;;;;;;;;;21.98;49.00;96794.72;5094629;28;19981;-73
2022/06/13 08:36:14;;;;;;;;;;;;;;;22.06;50.06;96802.13;5094824;28;19953;-72
2022/06/13 08:38:40;;;;;;;;;;;;;;;22.13;50.25;96817.81;5094464;28;19970;-72
2022/06/13 08:41:06;;;;;;;;;;;;;;;22.22;50.74;96828.69;5094940;28;19958;-72
2022/06/13 08:43:32;;;;;;;;;;;;;;;22.22;50.05;96818.00;5094416;28;20437;-72
2022/06/13 08:46:08;;;;;;;;;;;;;;;22.09;49.58;96812.25;5094543;28;19958;-72
2022/06/13 08:48:39;;;;;;;;;;;;;;;22.06;50.34;96839.50;5075134;28;19963;-72
2022/06/13 08:51:08;;;;;;;;;;;;;;;22.19;49.92;96834.59;5094555;28;19958;-72
2022/06/13 08:53:41;;;;;;;;;;;;;;;22.06;50.71;96857.41;5094368;28;19965;-72
2022/06/13 08:56:09;;;;;;;;;;;;;;;22.17;49.54;96837.53;5094703;28;19958;-73
2022/06/13 08:58:41;;;;;;;;;;;;;;;22.25;48.55;96842.28;5094438;28;19970;-72
2022/06/13 09:01:07;;;;;;;;;;;;;;;22.10;47.96;96837.09;5076328;28;19975;-72
2022/06/13 09:03:45;;;;;;;;;;;;;;;21.69;49.47;96851.59;5094482;28;19970;-72
2022/06/13 09:06:16;;;;;;;;;;;;;;;21.65;49.51;96866.56;5094118;28;19957;-72
2022/06/13 09:08:45;;;;;;;;;;;;;;;21.65;45.42;96839.88;5094211;28;19962;-72
2022/06/13 09:11:14;;;;;;;;;;;;;;;21.72;48.40;96860.91;5094114;28;20349;-72
2022/06/13 09:14:04;;;;;;;;;;;;;;;21.82;47.55;96852.03;5094003;28;19970;-72
2022/06/13 09:16:32;;;;;;;;;;;;;;;21.88;48.55;96859.72;5088428;28;19960;-72
2022/06/13 09:19:02;;;;;;;;;;;;;;;21.97;48.02;96867.91;5093897;28;20427;-72
2022/06/13 09:21:43;;;;;;;;;;;;;;;22.11;46.73;96852.00;5094180;28;20423;-72
2022/06/13 09:24:23;;;;;;;;;;;;;;;22.15;45.93;96869.06;5093796;28;19959;-72
2022/06/13 09:26:50;;;;;;;;;;;;;;;21.89;45.12;96857.84;5075970;28;19965;-72
2022/06/13 09:29:25;;;;;;;;;;;;;;;21.80;46.76;96873.66;5094170;28;20385;-72
2022/06/13 09:31:58;;;;;;;;;;;;;;;21.81;46.23;96875.25;5093693;28;20004;-72
2022/06/13 09:34:32;;;;;;;;;;;;;;;21.80;46.25;96876.34;5093760;28;19966;-72
2022/06/13 09:37:08;;;;;;;;;;;;;;;21.74;45.49;96872.13;5093752;28;20406;-72
2022/06/13 09:39:34;;;;;;;;;;;;;;;21.64;47.12;96880.19;5075559;28;19979;-72
2022/06/13 09:42:23;;;;;;;;;;;;;;;21.65;46.60;96876.47;5093726;28;19972;-72
2022/06/13 09:45:02;;;;;;;;;;;;;;;21.74;42.91;96852.63;5093110;28;19968;-72
2022/06/13 09:47:31;;;;;;;;;;;;;;;21.85;45.66;96883.50;5094321;28;19973;-72
2022/06/13 09:50:07;;;;;;;;;;;;;;;21.86;46.35;96888.56;5092082;28;19967;-72
2022/06/13 09:52:43;;;;;;;;;;;;;;;22.05;43.10;96861.97;5093990;28;19961;-72
2022/06/13 09:55:16;;;;;;;;;;;;;;;22.34;46.01;96887.88;5078454;28;19954;-72
2022/06/13 09:58:02;;;;;;;;;;;;;;;22.50;43.61;96870.63;5093655;28;19962;-72
2022/06/13 10:00:48;;;;;;;;;;;;;;;22.63;41.72;96865.66;5082821;28;19960;-72
2022/06/13 10:03:23;;;;;;;;;;;;;;;22.70;42.92;96882.97;5079346;28;19963;-72
2022/06/13 10:06:05;;;;;;;;;;;;;;;22.77;41.08;96882.63;5075040;28;20411;-72
2022/06/13 10:08:34;;;;;;;;;;;;;;;22.69;41.86;96880.56;5093893;28;19961;-72
2022/06/13 10:11:08;;;;;;;;;;;;;;;22.53;41.61;96871.91;5093862;28;19969;-73
2022/06/13 10:13:52;;;;;;;;;;;;;;;22.19;41.30;96872.78;5079595;28;19951;-72
2022/06/13 10:16:50;;;;;;;;;;;;;;;21.83;45.18;96897.13;5057317;28;19959;-72
2022/06/13 10:19:16;;;;;;;;;;;;;;;21.61;43.16;96884.22;5088071;28;19978;-72
2022/06/13 10:21:47;;;;;;;;;;;;;;;21.78;42.54;96875.81;5093364;28;19957;-72
2022/06/13 10:24:18;;;;;;;;;;;;;;;22.10;40.64;96867.25;5092957;28;19958;-72
2022/06/13 10:27:03;;;;;;;;;;;;;;;22.39;40.54;96861.13;5083424;28;19962;-72
2022/06/13 10:29:46;;;;;;;;;;;;;;;22.42;39.70;96860.53;5097415;28;19962;-72
2022/06/13 10:32:31;;;;;;;;;;;;;;;22.65;42.46;96879.56;5097160;28;20331;-73
2022/06/13 10:35:02;;;;;;;;;;;;;;;22.79;41.06;96871.66;5096414;28;20396;-72
2022/06/13 10:37:46;;;;;;;;;;;;;;;22.64;38.93;96867.28;5097156;28;19964;-72
2022/06/13 10:40:13;;;;;;;;;;;;;;;22.73;41.29;96880.81;5096912;28;19974;-72
2022/06/13 10:42:39;;;;;;;;;;;;;;;22.94;40.40;96876.78;5096773;28;19950;-72
2022/06/13 10:45:07;;;;;;;;;;;;;;;23.16;38.85;96856.75;5096755;28;19961;-72
2022/06/13 10:47:37;;;;;;;;;;;;;;;23.20;35.82;96842.50;5097084;28;19962;-72
2022/06/13 10:50:07;;;;;;;;;;;;;;;23.26;37.27;96876.13;5078672;28;20328;-72
2022/06/13 10:52:35;;;;;;;;;;;;;;;23.38;37.41;96870.34;5097183;28;20033;-72
2022/06/13 10:55:08;;;;;;;;;;;;;;;23.56;40.04;96890.19;5096704;28;19968;-72
2022/06/13 10:57:45;;;;;;;;;;;;;;;23.75;36.88;96860.69;5091747;28;20275;-72
2022/06/13 11:00:22;;;;;;;;;;;;;;;23.83;36.67;96876.13;5095587;28;19981;-72
2022/06/13 11:02:49;;;;;;;;;;;;;;;23.99;36.53;96882.00;5096728;28;19965;-72
2022/06/13 11:05:17;;;;;;;;;;;;;;;23.88;35.44;96878.72;5078489;28;20333;-72
2022/06/13 11:08:03;;;;;;;;;;;;;;;23.88;35.63;96881.41;5096011;28;20441;-73
2022/06/13 11:10:32;;;;;;;;;;;;;;;23.94;36.76;96874.06;5096602;28;19956;-72
2022/06/13 11:12:58;;;;;;;;;;;;;;;24.07;37.40;96875.19;5096209;28;19969;-72
2022/06/13 11:24:49;;;;;;;;;;;;;;;24.92;32.11;96851.63;5022752;28;20365;-72
2022/06/13 11:27:41;;;;;;;;;;;;;;;25.14;35.13;96864.31;5014687;28;19974;-72
2022/06/13 11:30:18;;;;;;;;;;;;;;;25.12;33.34;96869.19;5020197;28;19964;-73
2022/06/13 11:32:59;;;;;;;;;;;;;;;25.15;29.90;96849.78;5024494;28;20001;-72
2022/06/13 11:35:30;;;;;;;;;;;;;;;25.20;32.29;96862.28;5022441;28;19967;-72
2022/06/13 11:38:08;;;;;;;;;;;;;;;25.26;32.68;96861.94;5023212;28;19952;-72
2022/06/13 11:40:35;;;;;;;;;;;;;;;25.49;35.53;96880.72;5033234;28;20073;-72
2022/06/13 11:43:01;;;;;;;;;;;;;;;25.65;35.63;96878.50;5023893;28;19972;-72
2022/06/13 11:45:55;;;;;;;;;;;;;;;25.80;33.87;96870.06;5024500;28;19962;-72
2022/06/13 11:48:21;;;;;;;;;;;;;;;25.63;33.48;96865.38;5028836;28;20427;-72
2022/06/13 11:50:56;;;;;;;;;;;;;;;25.61;33.41;96866.78;5004075;28;19958;-72
2022/06/13 11:53:37;;;;;;;;;;;;;;;25.60;32.86;96865.16;5033297;28;19967;-72
2022/06/13 11:56:06;;;;;;;;;;;;;;;25.31;31.98;96861.00;5063359;28;19971;-73
2022/06/13 11:58:33;;;;;;;;;;;;;;;24.91;34.94;96876.88;5095916;28;19980;-72
2022/06/13 12:01:11;;;;;;;;;;;;;;;24.61;34.38;96873.72;5095909;28;19965;-73
2022/06/13 12:03:37;;;;;;;;;;;;;;;24.77;35.41;96873.41;5086336;28;19959;-72
2022/06/13 12:06:12;;;;;;;;;;;;;;;25.02;34.30;96870.19;5095364;28;19960;-72
2022/06/13 12:08:39;;;;;;;;;;;;;;;25.05;34.40;96860.72;5077259;28;19960;-72
2022/06/13 12:11:19;;;;;;;;;;;;;;;25.01;34.04;96854.38;5095353;28;19958;-72
2022/06/13 12:13:46;;;;;;;;;;;;;;;24.85;34.57;96870.81;5095683;28;19975;-72
2022/06/13 12:16:18;;;;;;;;;;;;;;;24.88;33.86;96866.72;5095292;28;20335;-72
2022/06/13 12:19:02;;;;;;;;;;;;;;;24.95;34.35;96869.00;5095052;28;19964;-72
2022/06/13 12:21:43;;;;;;;;;;;;;;;25.15;33.68;96873.16;5094747;28;19951;-72
2022/06/13 12:24:35;;;;;;;;;;;;;;;25.20;34.81;96884.59;5071903;28;19953;-72
2022/06/13 12:27:05;;;;;;;;;;;;;;;25.41;33.01;96870.72;5094907;28;19955;-72
2022/06/13 12:29:51;;;;;;;;;;;;;;;25.51;32.56;96857.88;5094820;28;19953;-73
2022/06/13 12:32:25;;;;;;;;;;;;;;;25.37;32.90;96867.06;5095049;28;19985;-72
2022/06/13 12:35:03;;;;;;;;;;;;;;;25.42;33.86;96878.47;5094740;28;19957;-72
2022/06/13 12:37:38;;;;;;;;;;;;;;;25.51;32.21;96865.94;5094859;28;19985;-72
2022/06/13 12:40:16;;;;;;;;;;;;;;;25.51;33.75;96884.72;5094665;28;19970;-72
2022/06/13 12:42:42;;;;;;;;;;;;;;;25.55;33.35;96876.03;5094877;28;19953;-72
2022/06/13 12:45:38;;;;;;;;;;;;;;;25.25;31.99;96875.63;5012409;28;19960;-72
2022/06/13 12:48:15;;;;;;;;;;;;;;;25.15;31.80;96870.47;5068286;28;19954;-72
2022/06/13 12:50:59;;;;;;;;;;;;;;;25.08;32.97;96868.19;5094545;28;19957;-72
2022/06/13 12:53:25;;;;;;;;;;;;;;;25.00;32.93;96863.53;5081327;28;19957;-72
2022/06/13 12:55:57;;;;;;;;;;;;;;;24.80;33.79;96883.50;5094336;28;19955;-72
2022/06/13 12:58:29;;;;;;;;;;;;;;;24.78;33.33;96867.75;5094553;28;19955;-72
2022/06/13 13:01:02;;;;;;;;;;;;;;;24.96;34.37;96868.69;5094592;28;20430;-72
2022/06/13 13:03:47;;;;;;;;;;;;;;;24.90;33.34;96859.97;5094426;28;19968;-72
2022/06/13 13:06:13;;;;;;;;;;;;;;;24.70;33.68;96868.44;5094705;28;20416;-72
2022/06/13 13:08:41;;;;;;;;;;;;;;;24.77;35.65;96876.88;5094222;28;20012;-72
2022/06/13 13:11:23;;;;;;;;;;;;;;;24.78;33.47;96869.59;5092957;28;19963;-72
2022/06/13 13:13:55;;;;;;;;;;;;;;;24.70;34.41;96873.81;5093804;28;19959;-72
2022/06/13 13:16:25;;;;;;;;;;;;;;;24.60;33.48;96866.75;5075960;28;19954;-72
2022/06/13 13:19:09;;;;;;;;;;;;;;;24.35;34.51;96875.25;5094115;28;19970;-72
2022/06/13 13:21:35;;;;;;;;;;;;;;;24.27;33.20;96860.63;5094003;28;20358;-72
2022/06/13 13:24:10;;;;;;;;;;;;;;;24.28;33.64;96860.34;5093829;28;19955;-72
2022/06/13 13:26:36;;;;;;;;;;;;;;;24.36;33.70;96866.91;5094229;28;19956;-72
2022/06/13 13:29:22;;;;;;;;;;;;;;;24.44;33.04;96849.31;5094066;28;19957;-72
2022/06/13 13:32:11;;;;;;;;;;;;;;;24.65;34.51;96866.66;5093290;28;19982;-72